sensor_id;sensor_type;location;lat;lon;timestamp;temperature;humidity
16479;DHT22;8350;52.316;10.530;2022-12-17T00:01:20;-3.10;99.90
16479;DHT22;8350;52.316;10.530;2022-12-17T00:04:00;-3.00;99.90
16479;DHT22;8350;52.316;10.530;2022-12-17T00:06:45;-2.90;99.90
16479;DHT22;8350;52.316;10.530;2022-12-17T00:09:29;-2.90;99.90
16479;DHT22;8350;52.316;10.530;2022-12-17T00:12:28;-2.90;99.90
16479;DHT22;8350;52.316;10.530;2022-12-17T00:15:12;-2.90;99.90
16479;DHT22;8350;52.316;10.530;2022-12-17T00:18:03;-2.90;99.90
16479;DHT22;8350;52.316;10.530;2022-12-17T00:20:53;-2.80;99.90
16479;DHT22;8350;52.316;10.530;2022-12-17T00:23:37;-2.80;99.90
16479;DHT22;8350;52.316;10.530;2022-12-17T00:26:22;-2.90;99.90
16479;DHT22;8350;52.316;10.530;2022-12-17T00:29:06;-2.90;99.90
16479;DHT22;8350;52.316;10.530;2022-12-17T00:31:51;-2.90;99.90
16479;DHT22;8350;52.316;10.530;2022-12-17T00:34:36;-2.80;99.90
16479;DHT22;8350;52.316;10.530;2022-12-17T00:37:23;-2.90;99.90
16479;DHT22;8350;52.316;10.530;2022-12-17T00:40:09;-3.00;99.90
16479;DHT22;8350;52.316;10.530;2022-12-17T00:43:00;-3.00;99.90
16479;DHT22;8350;52.316;10.530;2022-12-17T00:45:44;-2.90;99.90
16479;DHT22;8350;52.316;10.530;2022-12-17T00:48:29;-2.90;99.90
16479;DHT22;8350;52.316;10.530;2022-12-17T00:51:18;-2.90;99.90
16479;DHT22;8350;52.316;10.530;2022-12-17T00:54:02;-2.90;99.90
16479;DHT22;8350;52.316;10.530;2022-12-17T00:56:47;-2.90;99.90
16479;DHT22;8350;52.316;10.530;2022-12-17T00:59:31;-2.90;99.90
16479;DHT22;8350;52.316;10.530;2022-12-17T01:02:15;-2.80;99.90
16479;DHT22;8350;52.316;10.530;2022-12-17T01:05:07;-2.80;99.90
16479;DHT22;8350;52.316;10.530;2022-12-17T01:07:56;-2.80;99.90
16479;DHT22;8350;52.316;10.530;2022-12-17T01:10:41;-2.80;99.90
16479;DHT22;8350;52.316;10.530;2022-12-17T01:13:25;-2.80;99.90
16479;DHT22;8350;52.316;10.530;2022-12-17T01:16:12;-2.80;99.90
16479;DHT22;8350;52.316;10.530;2022-12-17T01:18:57;-2.90;99.90
16479;DHT22;8350;52.316;10.530;2022-12-17T01:21:43;-2.90;99.90
16479;DHT22;8350;52.316;10.530;2022-12-17T01:24:29;-2.90;99.90
16479;DHT22;8350;52.316;10.530;2022-12-17T01:27:17;-2.90;99.90
16479;DHT22;8350;52.316;10.530;2022-12-17T01:30:01;-2.90;99.90
16479;DHT22;8350;52.316;10.530;2022-12-17T01:32:46;-2.90;99.90
16479;DHT22;8350;52.316;10.530;2022-12-17T01:35:30;-3.00;99.90
16479;DHT22;8350;52.316;10.530;2022-12-17T01:38:16;-3.00;99.90
16479;DHT22;8350;52.316;10.530;2022-12-17T01:41:02;-3.00;99.90
16479;DHT22;8350;52.316;10.530;2022-12-17T01:43:48;-2.90;99.90
16479;DHT22;8350;52.316;10.530;2022-12-17T01:46:33;-2.90;99.90
16479;DHT22;8350;52.316;10.530;2022-12-17T01:49:20;-3.00;99.90
16479;DHT22;8350;52.316;10.530;2022-12-17T01:52:05;-3.00;99.90
16479;DHT22;8350;52.316;10.530;2022-12-17T01:54:50;-3.00;99.90
16479;DHT22;8350;52.316;10.530;2022-12-17T01:57:54;-3.00;99.90
16479;DHT22;8350;52.316;10.530;2022-12-17T02:00:39;-3.10;99.90
16479;DHT22;8350;52.316;10.530;2022-12-17T02:03:23;-3.10;99.90
16479;DHT22;8350;52.316;10.530;2022-12-17T02:06:11;-3.10;99.90
16479;DHT22;8350;52.316;10.530;2022-12-17T02:09:04;-2.80;99.90
16479;DHT22;8350;52.316;10.530;2022-12-17T02:11:57;-2.80;99.90
16479;DHT22;8350;52.316;10.530;2022-12-17T02:14:50;-2.80;99.90
16479;DHT22;8350;52.316;10.530;2022-12-17T02:17:41;-2.90;99.90
16479;DHT22;8350;52.316;10.530;2022-12-17T02:20:30;-2.90;99.90
16479;DHT22;8350;52.316;10.530;2022-12-17T02:23:32;-2.90;99.90
16479;DHT22;8350;52.316;10.530;2022-12-17T02:26:27;-2.90;99.90
16479;DHT22;8350;52.316;10.530;2022-12-17T02:29:13;-2.90;99.90
16479;DHT22;8350;52.316;10.530;2022-12-17T02:31:58;-2.90;99.90
16479;DHT22;8350;52.316;10.530;2022-12-17T02:34:43;-2.90;99.90
16479;DHT22;8350;52.316;10.530;2022-12-17T02:37:29;-3.00;99.90
16479;DHT22;8350;52.316;10.530;2022-12-17T02:40:13;-3.00;99.90
16479;DHT22;8350;52.316;10.530;2022-12-17T02:43:02;-3.00;99.90
16479;DHT22;8350;52.316;10.530;2022-12-17T02:45:47;-3.10;99.90
16479;DHT22;8350;52.316;10.530;2022-12-17T02:48:31;-3.20;99.90
16479;DHT22;8350;52.316;10.530;2022-12-17T02:51:17;-3.20;99.90
16479;DHT22;8350;52.316;10.530;2022-12-17T02:54:02;-3.20;99.90
16479;DHT22;8350;52.316;10.530;2022-12-17T02:56:48;-3.10;99.90
16479;DHT22;8350;52.316;10.530;2022-12-17T02:59:33;-3.20;99.90
16479;DHT22;8350;52.316;10.530;2022-12-17T03:02:19;-3.20;99.90
16479;DHT22;8350;52.316;10.530;2022-12-17T03:05:04;-3.20;99.90
16479;DHT22;8350;52.316;10.530;2022-12-17T03:07:55;-3.20;99.90
16479;DHT22;8350;52.316;10.530;2022-12-17T03:10:47;-3.20;99.90
16479;DHT22;8350;52.316;10.530;2022-12-17T03:13:31;-3.30;99.90
16479;DHT22;8350;52.316;10.530;2022-12-17T03:16:20;-3.20;99.90
16479;DHT22;8350;52.316;10.530;2022-12-17T03:19:04;-3.20;99.90
16479;DHT22;8350;52.316;10.530;2022-12-17T03:21:49;-3.20;99.90
16479;DHT22;8350;52.316;10.530;2022-12-17T03:24:37;-3.20;99.90
16479;DHT22;8350;52.316;10.530;2022-12-17T03:27:24;-3.30;99.90
16479;DHT22;8350;52.316;10.530;2022-12-17T03:30:09;-3.10;99.90
16479;DHT22;8350;52.316;10.530;2022-12-17T03:33:06;-3.10;99.90
16479;DHT22;8350;52.316;10.530;2022-12-17T03:35:52;-3.10;99.90
16479;DHT22;8350;52.316;10.530;2022-12-17T03:38:50;-3.10;99.90
16479;DHT22;8350;52.316;10.530;2022-12-17T03:41:35;-3.10;99.90
16479;DHT22;8350;52.316;10.530;2022-12-17T03:44:19;-3.10;99.90
16479;DHT22;8350;52.316;10.530;2022-12-17T03:47:04;-3.10;99.90
16479;DHT22;8350;52.316;10.530;2022-12-17T03:49:52;-3.10;99.90
16479;DHT22;8350;52.316;10.530;2022-12-17T03:52:37;-3.10;99.90
16479;DHT22;8350;52.316;10.530;2022-12-17T03:55:21;-3.10;99.90
16479;DHT22;8350;52.316;10.530;2022-12-17T03:58:12;-3.10;99.90
16479;DHT22;8350;52.316;10.530;2022-12-17T04:00:57;-3.20;99.90
16479;DHT22;8350;52.316;10.530;2022-12-17T04:03:41;-3.20;99.90
16479;DHT22;8350;52.316;10.530;2022-12-17T04:06:27;-3.20;99.90
16479;DHT22;8350;52.316;10.530;2022-12-17T04:09:12;-3.20;99.90
16479;DHT22;8350;52.316;10.530;2022-12-17T04:11:57;-3.20;99.90
16479;DHT22;8350;52.316;10.530;2022-12-17T04:14:41;-3.30;99.90
16479;DHT22;8350;52.316;10.530;2022-12-17T04:17:25;-3.20;99.90
16479;DHT22;8350;52.316;10.530;2022-12-17T04:20:09;-3.00;99.90
16479;DHT22;8350;52.316;10.530;2022-12-17T04:22:56;-2.90;99.90
16479;DHT22;8350;52.316;10.530;2022-12-17T04:25:40;-2.80;99.90
16479;DHT22;8350;52.316;10.530;2022-12-17T04:28:25;-2.80;99.90
16479;DHT22;8350;52.316;10.530;2022-12-17T04:31:09;-2.80;99.90
16479;DHT22;8350;52.316;10.530;2022-12-17T04:33:54;-2.90;99.90
16479;DHT22;8350;52.316;10.530;2022-12-17T04:36:39;-2.90;99.90
16479;DHT22;8350;52.316;10.530;2022-12-17T04:39:25;-2.90;99.90
16479;DHT22;8350;52.316;10.530;2022-12-17T04:42:15;-3.00;99.90
16479;DHT22;8350;52.316;10.530;2022-12-17T04:44:59;-3.00;99.90
16479;DHT22;8350;52.316;10.530;2022-12-17T04:47:46;-2.90;99.90
16479;DHT22;8350;52.316;10.530;2022-12-17T04:50:31;-2.90;99.90
16479;DHT22;8350;52.316;10.530;2022-12-17T04:53:15;-2.90;99.90
16479;DHT22;8350;52.316;10.530;2022-12-17T04:56:00;-3.00;99.90
16479;DHT22;8350;52.316;10.530;2022-12-17T04:58:45;-2.90;99.90
16479;DHT22;8350;52.316;10.530;2022-12-17T05:01:30;-3.00;99.90
16479;DHT22;8350;52.316;10.530;2022-12-17T05:04:18;-3.00;99.90
16479;DHT22;8350;52.316;10.530;2022-12-17T05:07:01;-3.00;99.90
16479;DHT22;8350;52.316;10.530;2022-12-17T05:09:52;-2.90;99.90
16479;DHT22;8350;52.316;10.530;2022-12-17T05:12:38;-3.00;99.90
16479;DHT22;8350;52.316;10.530;2022-12-17T05:15:22;-2.90;99.90
16479;DHT22;8350;52.316;10.530;2022-12-17T05:18:07;-3.00;99.90
16479;DHT22;8350;52.316;10.530;2022-12-17T05:20:51;-3.00;99.90
16479;DHT22;8350;52.316;10.530;2022-12-17T05:23:36;-3.00;99.90
16479;DHT22;8350;52.316;10.530;2022-12-17T05:26:22;-2.90;99.90
16479;DHT22;8350;52.316;10.530;2022-12-17T05:29:09;-2.90;99.90
16479;DHT22;8350;52.316;10.530;2022-12-17T05:31:53;-2.90;99.90
16479;DHT22;8350;52.316;10.530;2022-12-17T05:34:38;-2.90;99.90
16479;DHT22;8350;52.316;10.530;2022-12-17T05:37:22;-2.90;99.90
16479;DHT22;8350;52.316;10.530;2022-12-17T05:40:08;-2.90;99.90
16479;DHT22;8350;52.316;10.530;2022-12-17T05:42:56;-2.90;99.90
16479;DHT22;8350;52.316;10.530;2022-12-17T05:45:42;-2.90;99.90
16479;DHT22;8350;52.316;10.530;2022-12-17T05:48:27;-2.90;99.90
16479;DHT22;8350;52.316;10.530;2022-12-17T05:51:12;-2.90;99.90
16479;DHT22;8350;52.316;10.530;2022-12-17T05:53:56;-2.90;99.90
16479;DHT22;8350;52.316;10.530;2022-12-17T05:56:40;-2.90;99.90
16479;DHT22;8350;52.316;10.530;2022-12-17T05:59:25;-2.90;99.90
16479;DHT22;8350;52.316;10.530;2022-12-17T06:02:10;-2.90;99.90
16479;DHT22;8350;52.316;10.530;2022-12-17T06:04:55;-2.90;99.90
16479;DHT22;8350;52.316;10.530;2022-12-17T06:08:01;-2.80;99.90
16479;DHT22;8350;52.316;10.530;2022-12-17T06:10:45;-2.90;99.90
16479;DHT22;8350;52.316;10.530;2022-12-17T06:13:30;-2.80;99.90
16479;DHT22;8350;52.316;10.530;2022-12-17T06:16:14;-2.90;99.90
16479;DHT22;8350;52.316;10.530;2022-12-17T06:19:00;-2.90;99.90
16479;DHT22;8350;52.316;10.530;2022-12-17T06:21:44;-2.90;99.90
16479;DHT22;8350;52.316;10.530;2022-12-17T06:24:28;-2.90;99.90
16479;DHT22;8350;52.316;10.530;2022-12-17T06:27:12;-2.90;99.90
16479;DHT22;8350;52.316;10.530;2022-12-17T06:29:57;-2.90;99.90
16479;DHT22;8350;52.316;10.530;2022-12-17T06:32:41;-2.80;99.90
16479;DHT22;8350;52.316;10.530;2022-12-17T06:35:26;-2.80;99.90
16479;DHT22;8350;52.316;10.530;2022-12-17T06:38:12;-2.80;99.90
16479;DHT22;8350;52.316;10.530;2022-12-17T06:40:59;-2.80;99.90
16479;DHT22;8350;52.316;10.530;2022-12-17T06:43:43;-2.80;99.90
16479;DHT22;8350;52.316;10.530;2022-12-17T06:46:28;-2.80;99.90
16479;DHT22;8350;52.316;10.530;2022-12-17T06:49:13;-2.90;99.90
16479;DHT22;8350;52.316;10.530;2022-12-17T06:51:59;-2.90;99.90
16479;DHT22;8350;52.316;10.530;2022-12-17T06:54:43;-3.00;99.90
16479;DHT22;8350;52.316;10.530;2022-12-17T06:57:27;-2.90;99.90
16479;DHT22;8350;52.316;10.530;2022-12-17T07:00:12;-2.90;99.90
16479;DHT22;8350;52.316;10.530;2022-12-17T07:02:57;-2.90;99.90
16479;DHT22;8350;52.316;10.530;2022-12-17T07:05:41;-2.90;99.90
16479;DHT22;8350;52.316;10.530;2022-12-17T07:08:27;-2.90;99.90
16479;DHT22;8350;52.316;10.530;2022-12-17T07:11:15;-2.90;99.90
16479;DHT22;8350;52.316;10.530;2022-12-17T07:13:59;-2.90;99.90
16479;DHT22;8350;52.316;10.530;2022-12-17T07:16:43;-2.90;99.90
16479;DHT22;8350;52.316;10.530;2022-12-17T07:19:27;-2.90;99.90
16479;DHT22;8350;52.316;10.530;2022-12-17T07:22:11;-3.00;99.90
16479;DHT22;8350;52.316;10.530;2022-12-17T07:24:57;-2.90;99.90
16479;DHT22;8350;52.316;10.530;2022-12-17T07:27:53;-2.90;99.90
16479;DHT22;8350;52.316;10.530;2022-12-17T07:30:38;-2.90;99.90
16479;DHT22;8350;52.316;10.530;2022-12-17T07:33:22;-2.90;99.90
16479;DHT22;8350;52.316;10.530;2022-12-17T07:36:07;-2.90;99.90
16479;DHT22;8350;52.316;10.530;2022-12-17T07:38:51;-2.90;99.90
16479;DHT22;8350;52.316;10.530;2022-12-17T07:41:37;-2.90;99.90
16479;DHT22;8350;52.316;10.530;2022-12-17T07:44:36;-2.90;99.90
16479;DHT22;8350;52.316;10.530;2022-12-17T07:47:29;-2.70;99.90
16479;DHT22;8350;52.316;10.530;2022-12-17T07:50:28;-2.60;99.90
16479;DHT22;8350;52.316;10.530;2022-12-17T07:53:12;-2.50;99.90
16479;DHT22;8350;52.316;10.530;2022-12-17T07:55:57;-2.40;99.90
16479;DHT22;8350;52.316;10.530;2022-12-17T07:58:43;-2.30;99.90
16479;DHT22;8350;52.316;10.530;2022-12-17T08:01:27;-2.10;99.90
16479;DHT22;8350;52.316;10.530;2022-12-17T08:04:11;-2.00;99.90
16479;DHT22;8350;52.316;10.530;2022-12-17T08:06:56;-2.00;99.90
16479;DHT22;8350;52.316;10.530;2022-12-17T08:09:40;-2.00;99.90
16479;DHT22;8350;52.316;10.530;2022-12-17T08:12:25;-1.90;99.90
16479;DHT22;8350;52.316;10.530;2022-12-17T08:15:11;-1.80;99.90
16479;DHT22;8350;52.316;10.530;2022-12-17T08:17:59;-1.80;99.90
16479;DHT22;8350;52.316;10.530;2022-12-17T08:20:43;-1.80;99.90
16479;DHT22;8350;52.316;10.530;2022-12-17T08:23:27;-1.80;99.90
16479;DHT22;8350;52.316;10.530;2022-12-17T08:26:14;-1.80;99.90
16479;DHT22;8350;52.316;10.530;2022-12-17T08:29:05;-1.80;99.90
16479;DHT22;8350;52.316;10.530;2022-12-17T08:31:50;-1.90;99.90
16479;DHT22;8350;52.316;10.530;2022-12-17T08:34:37;-2.00;99.90
16479;DHT22;8350;52.316;10.530;2022-12-17T08:37:24;-1.90;99.90
16479;DHT22;8350;52.316;10.530;2022-12-17T08:40:09;-1.90;99.90
16479;DHT22;8350;52.316;10.530;2022-12-17T08:42:56;-1.80;99.90
16479;DHT22;8350;52.316;10.530;2022-12-17T08:45:45;-1.80;99.90
16479;DHT22;8350;52.316;10.530;2022-12-17T08:48:32;-1.90;99.90
16479;DHT22;8350;52.316;10.530;2022-12-17T08:51:16;-1.80;99.90
16479;DHT22;8350;52.316;10.530;2022-12-17T08:54:01;-1.80;99.90
16479;DHT22;8350;52.316;10.530;2022-12-17T08:56:45;-1.80;99.90
16479;DHT22;8350;52.316;10.530;2022-12-17T08:59:29;-1.70;99.90
16479;DHT22;8350;52.316;10.530;2022-12-17T09:02:27;-1.70;99.90
16479;DHT22;8350;52.316;10.530;2022-12-17T09:05:13;-1.70;99.90
16479;DHT22;8350;52.316;10.530;2022-12-17T09:08:05;-1.60;99.90
16479;DHT22;8350;52.316;10.530;2022-12-17T09:10:51;-1.60;99.90
16479;DHT22;8350;52.316;10.530;2022-12-17T09:13:36;-1.50;99.90
16479;DHT22;8350;52.316;10.530;2022-12-17T09:16:27;-1.50;99.90
16479;DHT22;8350;52.316;10.530;2022-12-17T09:19:11;-1.50;99.90
16479;DHT22;8350;52.316;10.530;2022-12-17T09:21:58;-1.50;99.90
16479;DHT22;8350;52.316;10.530;2022-12-17T09:24:42;-1.40;99.90
16479;DHT22;8350;52.316;10.530;2022-12-17T09:27:27;-1.40;99.90
16479;DHT22;8350;52.316;10.530;2022-12-17T09:30:12;-1.40;99.90
16479;DHT22;8350;52.316;10.530;2022-12-17T09:32:57;-1.30;99.90
16479;DHT22;8350;52.316;10.530;2022-12-17T09:35:41;-1.20;99.90
16479;DHT22;8350;52.316;10.530;2022-12-17T09:38:27;-1.10;99.90
16479;DHT22;8350;52.316;10.530;2022-12-17T09:41:17;-1.10;99.90
16479;DHT22;8350;52.316;10.530;2022-12-17T09:44:10;-1.10;99.90
16479;DHT22;8350;52.316;10.530;2022-12-17T09:47:04;-1.00;99.90
16479;DHT22;8350;52.316;10.530;2022-12-17T09:49:51;-1.00;99.90
16479;DHT22;8350;52.316;10.530;2022-12-17T09:52:38;-0.90;99.90
16479;DHT22;8350;52.316;10.530;2022-12-17T09:55:27;-0.90;99.90
16479;DHT22;8350;52.316;10.530;2022-12-17T09:58:28;-0.70;99.90
16479;DHT22;8350;52.316;10.530;2022-12-17T10:01:15;-0.60;99.90
16479;DHT22;8350;52.316;10.530;2022-12-17T10:04:00;-0.40;99.90
16479;DHT22;8350;52.316;10.530;2022-12-17T10:06:45;-0.30;99.90
16479;DHT22;8350;52.316;10.530;2022-12-17T10:09:30;-0.20;99.90
16479;DHT22;8350;52.316;10.530;2022-12-17T10:12:19;0.00;99.90
16479;DHT22;8350;52.316;10.530;2022-12-17T10:15:06;0.20;99.90
16479;DHT22;8350;52.316;10.530;2022-12-17T10:17:50;0.20;99.90
16479;DHT22;8350;52.316;10.530;2022-12-17T10:20:38;0.20;99.90
16479;DHT22;8350;52.316;10.530;2022-12-17T10:23:27;0.30;99.90
16479;DHT22;8350;52.316;10.530;2022-12-17T10:26:16;0.30;99.90
16479;DHT22;8350;52.316;10.530;2022-12-17T10:29:10;0.30;99.90
16479;DHT22;8350;52.316;10.530;2022-12-17T10:31:58;0.30;99.90
16479;DHT22;8350;52.316;10.530;2022-12-17T10:34:44;0.20;99.90
16479;DHT22;8350;52.316;10.530;2022-12-17T10:37:31;0.40;99.90
16479;DHT22;8350;52.316;10.530;2022-12-17T10:40:23;0.20;99.90
16479;DHT22;8350;52.316;10.530;2022-12-17T10:43:25;0.30;99.90
16479;DHT22;8350;52.316;10.530;2022-12-17T10:46:21;0.40;99.90
16479;DHT22;8350;52.316;10.530;2022-12-17T10:49:11;0.40;99.90
16479;DHT22;8350;52.316;10.530;2022-12-17T10:52:01;0.40;99.90
16479;DHT22;8350;52.316;10.530;2022-12-17T10:54:55;0.50;99.90
16479;DHT22;8350;52.316;10.530;2022-12-17T10:57:52;0.60;99.90
16479;DHT22;8350;52.316;10.530;2022-12-17T11:00:38;0.60;99.90
16479;DHT22;8350;52.316;10.530;2022-12-17T11:03:27;0.60;99.90
16479;DHT22;8350;52.316;10.530;2022-12-17T11:06:14;0.50;95.80
16479;DHT22;8350;52.316;10.530;2022-12-17T11:09:00;0.40;66.90
16479;DHT22;8350;52.316;10.530;2022-12-17T11:11:45;0.30;98.80
16479;DHT22;8350;52.316;10.530;2022-12-17T11:14:33;0.30;99.90
16479;DHT22;8350;52.316;10.530;2022-12-17T11:17:23;0.30;99.90
16479;DHT22;8350;52.316;10.530;2022-12-17T11:20:19;0.40;99.90
16479;DHT22;8350;52.316;10.530;2022-12-17T11:23:07;0.40;99.90
16479;DHT22;8350;52.316;10.530;2022-12-17T11:26:06;0.40;99.90
16479;DHT22;8350;52.316;10.530;2022-12-17T11:28:51;0.40;99.90
16479;DHT22;8350;52.316;10.530;2022-12-17T11:31:55;0.40;99.90
16479;DHT22;8350;52.316;10.530;2022-12-17T11:34:59;0.40;86.50
16479;DHT22;8350;52.316;10.530;2022-12-17T11:37:56;0.30;69.20
16479;DHT22;8350;52.316;10.530;2022-12-17T11:40:46;0.40;92.20
16479;DHT22;8350;52.316;10.530;2022-12-17T11:43:41;0.50;87.60
16479;DHT22;8350;52.316;10.530;2022-12-17T11:46:36;0.60;95.60
16479;DHT22;8350;52.316;10.530;2022-12-17T11:49:32;0.60;70.20
16479;DHT22;8350;52.316;10.530;2022-12-17T11:52:26;0.70;16.10
16479;DHT22;8350;52.316;10.530;2022-12-17T11:55:25;0.90;20.50
16479;DHT22;8350;52.316;10.530;2022-12-17T11:58:17;0.90;11.70
16479;DHT22;8350;52.316;10.530;2022-12-17T12:01:19;1.10;11.80
16479;DHT22;8350;52.316;10.530;2022-12-17T12:04:16;1.10;1.00
16479;DHT22;8350;52.316;10.530;2022-12-17T12:07:08;1.20;1.00
16479;DHT22;8350;52.316;10.530;2022-12-17T12:10:16;1.20;1.00
16479;DHT22;8350;52.316;10.530;2022-12-17T12:13:22;1.30;1.00
16479;DHT22;8350;52.316;10.530;2022-12-17T12:16:14;1.30;1.00
16479;DHT22;8350;52.316;10.530;2022-12-17T12:19:13;1.40;1.00
16479;DHT22;8350;52.316;10.530;2022-12-17T12:22:06;1.40;1.00
16479;DHT22;8350;52.316;10.530;2022-12-17T12:25:21;1.50;1.00
16479;DHT22;8350;52.316;10.530;2022-12-17T12:28:10;1.50;1.00
16479;DHT22;8350;52.316;10.530;2022-12-17T12:31:08;1.60;1.00
16479;DHT22;8350;52.316;10.530;2022-12-17T12:33:58;1.50;1.00
16479;DHT22;8350;52.316;10.530;2022-12-17T12:36:45;1.50;1.00
16479;DHT22;8350;52.316;10.530;2022-12-17T12:39:35;1.40;1.00
16479;DHT22;8350;52.316;10.530;2022-12-17T12:42:24;1.40;1.00
16479;DHT22;8350;52.316;10.530;2022-12-17T12:45:26;1.30;1.00
16479;DHT22;8350;52.316;10.530;2022-12-17T12:48:22;1.40;1.00
16479;DHT22;8350;52.316;10.530;2022-12-17T12:51:12;1.40;1.00
16479;DHT22;8350;52.316;10.530;2022-12-17T12:54:01;1.40;1.00
16479;DHT22;8350;52.316;10.530;2022-12-17T12:57:03;1.50;1.00
16479;DHT22;8350;52.316;10.530;2022-12-17T13:03:52;1.50;1.00
16479;DHT22;8350;52.316;10.530;2022-12-17T13:06:47;1.40;1.00
16479;DHT22;8350;52.316;10.530;2022-12-17T13:09:30;1.30;1.00
16479;DHT22;8350;52.316;10.530;2022-12-17T13:12:13;1.30;1.00
16479;DHT22;8350;52.316;10.530;2022-12-17T13:14:48;1.30;1.00
16479;DHT22;8350;52.316;10.530;2022-12-17T13:17:29;1.30;1.00
16479;DHT22;8350;52.316;10.530;2022-12-17T13:20:03;1.30;1.00
16479;DHT22;8350;52.316;10.530;2022-12-17T13:22:31;1.40;1.00
16479;DHT22;8350;52.316;10.530;2022-12-17T13:25:15;1.50;1.00
16479;DHT22;8350;52.316;10.530;2022-12-17T13:27:42;1.50;1.00
16479;DHT22;8350;52.316;10.530;2022-12-17T13:30:36;1.50;1.00
16479;DHT22;8350;52.316;10.530;2022-12-17T13:33:18;1.60;1.00
16479;DHT22;8350;52.316;10.530;2022-12-17T13:35:56;1.60;1.00
16479;DHT22;8350;52.316;10.530;2022-12-17T13:38:34;1.60;1.00
16479;DHT22;8350;52.316;10.530;2022-12-17T13:41:07;1.60;1.00
16479;DHT22;8350;52.316;10.530;2022-12-17T13:43:39;1.60;1.00
16479;DHT22;8350;52.316;10.530;2022-12-17T13:46:18;1.60;1.00
16479;DHT22;8350;52.316;10.530;2022-12-17T13:48:52;1.70;1.00
16479;DHT22;8350;52.316;10.530;2022-12-17T13:51:23;1.60;1.00
16479;DHT22;8350;52.316;10.530;2022-12-17T13:53:52;1.60;1.00
16479;DHT22;8350;52.316;10.530;2022-12-17T13:56:25;1.60;1.00
16479;DHT22;8350;52.316;10.530;2022-12-17T13:58:55;1.60;1.00
16479;DHT22;8350;52.316;10.530;2022-12-17T14:01:27;1.70;1.00
16479;DHT22;8350;52.316;10.530;2022-12-17T14:03:55;1.60;1.00
16479;DHT22;8350;52.316;10.530;2022-12-17T14:06:26;1.70;1.00
16479;DHT22;8350;52.316;10.530;2022-12-17T14:08:55;1.70;1.00
16479;DHT22;8350;52.316;10.530;2022-12-17T14:11:23;1.60;1.00
16479;DHT22;8350;52.316;10.530;2022-12-17T14:14:16;1.60;1.00
16479;DHT22;8350;52.316;10.530;2022-12-17T14:16:44;1.50;1.00
16479;DHT22;8350;52.316;10.530;2022-12-17T14:19:11;1.40;1.00
16479;DHT22;8350;52.316;10.530;2022-12-17T14:21:42;1.30;1.00
16479;DHT22;8350;52.316;10.530;2022-12-17T14:24:11;1.20;1.00
16479;DHT22;8350;52.316;10.530;2022-12-17T14:26:50;1.20;1.00
16479;DHT22;8350;52.316;10.530;2022-12-17T14:29:25;1.00;1.00
16479;DHT22;8350;52.316;10.530;2022-12-17T14:31:55;1.00;1.00
16479;DHT22;8350;52.316;10.530;2022-12-17T14:34:23;0.90;1.00
16479;DHT22;8350;52.316;10.530;2022-12-17T14:36:56;0.80;1.00
16479;DHT22;8350;52.316;10.530;2022-12-17T14:39:25;0.70;1.00
16479;DHT22;8350;52.316;10.530;2022-12-17T14:41:57;0.60;1.00
16479;DHT22;8350;52.316;10.530;2022-12-17T14:44:49;0.60;1.00
16479;DHT22;8350;52.316;10.530;2022-12-17T14:47:19;0.40;1.00
16479;DHT22;8350;52.316;10.530;2022-12-17T14:49:59;0.30;2.90
16479;DHT22;8350;52.316;10.530;2022-12-17T14:52:36;0.20;6.90
16479;DHT22;8350;52.316;10.530;2022-12-17T14:55:22;0.00;10.40
16479;DHT22;8350;52.316;10.530;2022-12-17T14:57:50;-0.10;21.00
16479;DHT22;8350;52.316;10.530;2022-12-17T15:00:19;-0.20;23.10
16479;DHT22;8350;52.316;10.530;2022-12-17T15:02:52;-0.40;35.60
16479;DHT22;8350;52.316;10.530;2022-12-17T15:05:20;-0.60;45.50
16479;DHT22;8350;52.316;10.530;2022-12-17T15:07:48;-0.80;59.70
16479;DHT22;8350;52.316;10.530;2022-12-17T15:10:19;-0.90;85.60
16479;DHT22;8350;52.316;10.530;2022-12-17T15:12:46;-1.10;99.90
16479;DHT22;8350;52.316;10.530;2022-12-17T15:15:16;-1.20;99.90
16479;DHT22;8350;52.316;10.530;2022-12-17T15:17:43;-1.30;99.90
16479;DHT22;8350;52.316;10.530;2022-12-17T15:20:15;-1.30;99.90
16479;DHT22;8350;52.316;10.530;2022-12-17T15:22:43;-1.40;99.90
16479;DHT22;8350;52.316;10.530;2022-12-17T15:25:12;-1.60;99.90
16479;DHT22;8350;52.316;10.530;2022-12-17T15:27:43;-1.70;99.90
16479;DHT22;8350;52.316;10.530;2022-12-17T15:30:13;-1.80;99.90
16479;DHT22;8350;52.316;10.530;2022-12-17T15:32:44;-1.90;99.90
16479;DHT22;8350;52.316;10.530;2022-12-17T15:35:14;-1.90;99.90
16479;DHT22;8350;52.316;10.530;2022-12-17T15:37:41;-2.00;99.90
16479;DHT22;8350;52.316;10.530;2022-12-17T15:40:12;-2.10;99.90
16479;DHT22;8350;52.316;10.530;2022-12-17T15:42:47;-2.10;99.90
16479;DHT22;8350;52.316;10.530;2022-12-17T15:45:32;-2.30;99.90
16479;DHT22;8350;52.316;10.530;2022-12-17T15:48:01;-2.40;99.90
16479;DHT22;8350;52.316;10.530;2022-12-17T15:50:28;-2.50;99.90
16479;DHT22;8350;52.316;10.530;2022-12-17T15:52:55;-2.60;99.90
16479;DHT22;8350;52.316;10.530;2022-12-17T15:55:23;-2.80;99.90
16479;DHT22;8350;52.316;10.530;2022-12-17T15:57:50;-2.90;99.90
16479;DHT22;8350;52.316;10.530;2022-12-17T16:00:20;-3.10;99.90
16479;DHT22;8350;52.316;10.530;2022-12-17T16:02:47;-3.30;99.90
16479;DHT22;8350;52.316;10.530;2022-12-17T16:05:14;-3.40;99.90
16479;DHT22;8350;52.316;10.530;2022-12-17T16:07:41;-3.50;99.90
16479;DHT22;8350;52.316;10.530;2022-12-17T16:10:10;-3.60;99.90
16479;DHT22;8350;52.316;10.530;2022-12-17T16:12:38;-3.70;99.90
16479;DHT22;8350;52.316;10.530;2022-12-17T16:15:07;-3.80;99.90
16479;DHT22;8350;52.316;10.530;2022-12-17T16:17:34;-3.90;99.90
16479;DHT22;8350;52.316;10.530;2022-12-17T16:20:01;-3.90;99.90
16479;DHT22;8350;52.316;10.530;2022-12-17T16:22:28;-4.00;99.90
16479;DHT22;8350;52.316;10.530;2022-12-17T16:24:55;-4.00;99.90
16479;DHT22;8350;52.316;10.530;2022-12-17T16:27:23;-4.00;99.90
16479;DHT22;8350;52.316;10.530;2022-12-17T16:29:51;-4.00;99.90
16479;DHT22;8350;52.316;10.530;2022-12-17T16:32:19;-3.90;99.90
16479;DHT22;8350;52.316;10.530;2022-12-17T16:34:46;-3.90;99.90
16479;DHT22;8350;52.316;10.530;2022-12-17T16:37:13;-3.80;99.90
16479;DHT22;8350;52.316;10.530;2022-12-17T16:39:40;-3.80;99.90
16479;DHT22;8350;52.316;10.530;2022-12-17T16:42:07;-3.90;99.90
16479;DHT22;8350;52.316;10.530;2022-12-17T16:44:34;-3.90;99.90
16479;DHT22;8350;52.316;10.530;2022-12-17T16:47:02;-3.90;99.90
16479;DHT22;8350;52.316;10.530;2022-12-17T16:49:30;-3.90;99.90
16479;DHT22;8350;52.316;10.530;2022-12-17T16:51:57;-4.00;99.90
16479;DHT22;8350;52.316;10.530;2022-12-17T16:54:26;-4.00;99.90
16479;DHT22;8350;52.316;10.530;2022-12-17T16:56:59;-4.10;99.90
16479;DHT22;8350;52.316;10.530;2022-12-17T16:59:27;-4.10;99.90
16479;DHT22;8350;52.316;10.530;2022-12-17T17:01:54;-4.30;99.90
16479;DHT22;8350;52.316;10.530;2022-12-17T17:04:24;-4.30;99.90
16479;DHT22;8350;52.316;10.530;2022-12-17T17:06:52;-4.40;99.90
16479;DHT22;8350;52.316;10.530;2022-12-17T17:09:20;-4.50;99.90
16479;DHT22;8350;52.316;10.530;2022-12-17T17:11:48;-4.60;99.90
16479;DHT22;8350;52.316;10.530;2022-12-17T17:14:17;-4.70;99.90
16479;DHT22;8350;52.316;10.530;2022-12-17T17:16:44;-4.80;99.90
16479;DHT22;8350;52.316;10.530;2022-12-17T17:19:13;-4.90;99.90
16479;DHT22;8350;52.316;10.530;2022-12-17T17:21:47;-5.10;99.90
16479;DHT22;8350;52.316;10.530;2022-12-17T17:24:16;-5.00;99.90